Garretson, SD (57030)

3:44 AM CDT on September 16, 2014 (GMT -0500)
Split Rock Cr | Change Station
CLOSE
Current Station
Personal Weather Station
Location: Garretson, SD
Elevation: 1470 ft
Nearby Weather Stations

Elev 1470 ft 43.71 °N, 96.51 °W | Updated 1 minute ago

Clear
Clear
38.7 °F
Feels Like 39 °F
N
0.0
Wind Variable Wind from NNE
Gusts 0.0 mph

Today
High -- | Low -- °F
--% Chance of Precip.
Yesterday
High -- | Low -- °F
Precip. -- in
7:06 AM 7:34 PM
Waning Gibbous, 47% visible
Pressure 30.22 in
Visibility 1.8 miles
Clouds Clear
Windchill 39 °F
Dew Point 38 °F
Humidity 98%
Rainfall 0.00 in
Snow Depth Not available.
UV 0 out of 12
Pollen 4.40 out of 12
Air Quality Not available.
Flu Activity Not available.
SPECI KFSD 160837Z AUTO 00000KT 1 3/4SM BR CLR 05/04 A3022 RMK AO2 VIS 1V5 T00500044

More Conditions Fewer Conditions

Pressure 30.22 in
Visibility 1.8 miles
Clouds Clear
Windchill 39 °F
Dew Point 38 °F
Humidity 98%
Rainfall 0.00 in
Snow Depth Not available.
UV 0 out of 12
Pollen 4.40 out of 12
Air Quality Not available.
Flu Activity Not available.
SPECI KFSD 160837Z AUTO 00000KT 1 3/4SM BR CLR 05/04 A3022 RMK AO2 VIS 1V5 T00500044

More Conditions Fewer Conditions

10-Day Weather Forecast

Almanac

Astronomy

Sep. 16, 2014 Rise Set
Actual Time 7:06 AM CDT 7:34 PM CDT
Civil Twilight 6:37 AM CDT 8:03 PM CDT
Nautical Twilight 6:03 AM CDT 8:37 PM CDT
Astronomical Twilight 5:28 AM CDT 9:12 PM CDT
Moon 12:09 AM CDT 3:07 PM CDT
Length of Visible Light 13h 25m
Length of Day
12h 27m
Tomorrow will be 2m 58s shorter.
Waning Gibbous, 47% of the Moon is Illuminated
Today
Waning Gibbous
Sep 24
New
Oct 1
First Quarter
Oct 8
Full
Oct 15
Last Quarter

Today's Extremes

State Highs State Lows

Community

WunderPhotos

Upload Photos

1,753,712 photos uploaded!

WunderBlogs® & News

Nearby

Snow Depth

Station Depth Elevation
Blind Park 0 in 6890 ft

Earthquake Activity

City Distance Mag. Time & Date
No recent earthquake activity has been reported nearby.
Minimum magnitude displayed is 2.5.

Coastal Water Temperatures

Place Temperature
No Stations Reporting

Nearby Weather Stations